Time;durP1;ratioP1;P1;durP2;ratioP2;P2;SDS_P1;SDS_P2;PMS_P1;PMS_P2;Temp;Humidity;BMP_temperature;BMP_pressure;BME280_temperature;BME280_humidity;BME280_pressure;Samples;Min_cycle;Max_cycle;Signal;HPM_P1;HPM_P2
2023/03/17 00:01:31;;;;;;;;;;;;;;;3.81;64.05;100139.81;6032940;23;20330;-74
2023/03/17 00:04:16;;;;;;;;;;;;;;;3.80;64.20;100142.34;6035067;23;19921;-75
2023/03/17 00:06:56;;;;;;;;;;;;;;;3.83;64.34;100145.88;6017612;23;20361;-77
2023/03/17 00:09:50;;;;;;;;;;;;;;;3.84;64.00;100142.47;6039848;23;19913;-73
2023/03/17 00:16:19;;;;;;;;;;;;;;;3.83;64.07;100151.03;6083880;23;19923;-74
2023/03/17 00:18:56;;;;;;;;;;;;;;;3.79;63.58;100154.34;6123633;23;20257;-73
2023/03/17 00:21:36;;;;;;;;;;;;;;;3.74;63.70;100155.94;6093482;23;20435;-75
2023/03/17 00:24:13;;;;;;;;;;;;;;;3.75;63.72;100152.53;6096550;23;19917;-74
2023/03/17 00:26:43;;;;;;;;;;;;;;;3.69;62.68;100158.41;6096943;23;19923;-76
2023/03/17 00:29:09;;;;;;;;;;;;;;;3.73;63.90;100161.91;6097968;23;19923;-77
2023/03/17 00:36:09;;;;;;;;;;;;;;;3.75;63.88;100163.69;6099847;23;19999;-75
2023/03/17 00:38:45;;;;;;;;;;;;;;;3.76;64.32;100152.56;6124208;23;19967;-75
2023/03/17 00:41:35;;;;;;;;;;;;;;;3.74;63.65;100155.94;6123891;23;19917;-74
2023/03/17 00:44:11;;;;;;;;;;;;;;;3.70;63.77;100160.16;6098663;23;19916;-74
2023/03/17 00:46:47;;;;;;;;;;;;;;;3.70;63.86;100160.16;6121639;23;19923;-74
2023/03/17 00:49:29;;;;;;;;;;;;;;;3.68;63.66;100166.97;6064027;23;19963;-77
2023/03/17 00:52:04;;;;;;;;;;;;;;;3.67;63.28;100162.66;6109504;23;19912;-74
2023/03/17 00:54:39;;;;;;;;;;;;;;;3.62;63.47;100166.81;6098031;23;19939;-74
2023/03/17 00:57:24;;;;;;;;;;;;;;;3.60;63.74;100168.47;6099537;23;19924;-74
2023/03/17 01:07:14;;;;;;;;;;;;;;;3.66;63.82;100175.47;6089686;23;19924;-75
2023/03/17 01:10:18;;;;;;;;;;;;;;;3.68;63.61;100181.53;6086267;23;19995;-76
2023/03/17 01:16:54;;;;;;;;;;;;;;;3.56;63.87;100175.25;6091678;23;19978;-73
2023/03/17 01:19:25;;;;;;;;;;;;;;;3.50;63.44;100174.22;6090863;23;19924;-78
2023/03/17 01:22:49;;;;;;;;;;;;;;;3.52;63.86;100181.13;6076210;23;19948;-75
2023/03/17 01:25:19;;;;;;;;;;;;;;;3.49;63.53;100178.47;6044327;23;20328;-75
2023/03/17 01:27:59;;;;;;;;;;;;;;;3.46;63.89;100192.16;6089906;23;19960;-73
2023/03/17 01:30:50;;;;;;;;;;;;;;;3.49;63.79;100201.63;6088932;23;19917;-75
2023/03/17 01:42:29;;;;;;;;;;;;;;;3.58;63.83;100217.34;5881861;24;19994;-78
2023/03/17 01:46:14;;;;;;;;;;;;;;;3.54;63.77;100219.75;5998400;23;19918;-77
2023/03/17 01:53:55;;;;;;;;;;;;;;;3.57;63.52;100232.72;6007769;23;19925;-76
2023/03/17 02:00:56;;;;;;;;;;;;;;;3.61;64.11;100248.31;6096858;23;20268;-75
2023/03/17 02:03:52;;;;;;;;;;;;;;;3.61;63.76;100253.44;6122946;23;19916;-74
2023/03/17 02:06:40;;;;;;;;;;;;;;;3.56;63.84;100252.44;6075861;23;19920;-75
2023/03/17 02:09:23;;;;;;;;;;;;;;;3.56;63.45;100262.75;6120984;23;19960;-74
2023/03/17 02:12:23;;;;;;;;;;;;;;;3.63;63.78;100265.50;6048170;23;19921;-76
2023/03/17 02:15:28;;;;;;;;;;;;;;;3.71;63.75;100266.53;6101403;23;19946;-75
2023/03/17 02:18:28;;;;;;;;;;;;;;;3.75;63.60;100265.81;6122160;23;20264;-77
2023/03/17 02:21:37;;;;;;;;;;;;;;;3.76;63.63;100275.28;6080474;23;19927;-73
2023/03/17 02:24:16;;;;;;;;;;;;;;;3.72;63.32;100276.91;6098118;23;19917;-74
2023/03/17 02:28:15;;;;;;;;;;;;;;;3.73;63.33;100281.22;6118981;23;19991;-73
2023/03/17 02:30:48;;;;;;;;;;;;;;;3.73;63.52;100286.38;6117649;23;19923;-75
2023/03/17 02:36:59;;;;;;;;;;;;;;;3.74;63.38;100297.53;6096193;23;19924;-74
2023/03/17 02:39:51;;;;;;;;;;;;;;;3.73;64.07;100299.25;6122030;23;19991;-72
2023/03/17 02:42:50;;;;;;;;;;;;;;;3.71;63.92;100302.59;6123060;23;19916;-73
2023/03/17 02:45:16;;;;;;;;;;;;;;;3.72;63.44;100299.19;6098461;23;20250;-72
2023/03/17 02:47:51;;;;;;;;;;;;;;;3.73;63.61;100308.66;6078347;23;19944;-75
2023/03/17 02:50:49;;;;;;;;;;;;;;;3.72;63.62;100309.47;6106940;23;20011;-73
2023/03/17 02:53:19;;;;;;;;;;;;;;;3.75;63.49;100320.72;6122954;23;20007;-74
2023/03/17 02:56:29;;;;;;;;;;;;;;;3.73;63.12;100325.00;6143895;23;19964;-75
2023/03/17 02:59:00;;;;;;;;;;;;;;;3.71;63.81;100334.38;6090483;23;19923;-73
2023/03/17 03:01:32;;;;;;;;;;;;;;;3.69;63.77;100338.59;6129100;23;19924;-73
2023/03/17 03:04:53;;;;;;;;;;;;;;;3.68;63.69;100349.72;6125303;23;19948;-75
2023/03/17 03:07:46;;;;;;;;;;;;;;;3.75;63.76;100355.91;6100572;23;19920;-74
2023/03/17 03:10:28;;;;;;;;;;;;;;;3.72;63.10;100353.25;6121530;23;20416;-72
2023/03/17 03:13:43;;;;;;;;;;;;;;;3.74;63.26;100361.88;6006017;23;19948;-73
2023/03/17 03:16:25;;;;;;;;;;;;;;;3.72;63.26;100363.53;6123390;23;19908;-74
2023/03/17 03:23:05;;;;;;;;;;;;;;;3.69;63.19;100373.75;6097673;23;19924;-73
2023/03/17 03:25:51;;;;;;;;;;;;;;;3.64;63.31;100368.47;6096362;23;19924;-75
2023/03/17 03:31:54;;;;;;;;;;;;;;;3.65;63.08;100379.63;6070125;23;19949;-75
2023/03/17 03:35:14;;;;;;;;;;;;;;;3.68;63.57;100397.75;6039516;23;19924;-75
2023/03/17 03:41:47;;;;;;;;;;;;;;;3.70;63.35;100401.22;6005961;23;20021;-76
2023/03/17 03:49:23;;;;;;;;;;;;;;;3.65;63.40;100406.25;6024559;23;19936;-76
2023/03/17 03:53:06;;;;;;;;;;;;;;;3.59;63.18;100416.38;6097358;23;19972;-75
2023/03/17 03:56:35;;;;;;;;;;;;;;;3.63;63.02;100415.63;6097368;23;20352;-76
2023/03/17 03:59:56;;;;;;;;;;;;;;;3.67;62.87;100425.19;6044594;23;19925;-77
2023/03/17 04:04:12;;;;;;;;;;;;;;;3.63;62.57;100427.66;6050352;23;19924;-76
2023/03/17 04:07:08;;;;;;;;;;;;;;;3.51;62.56;100439.31;6092556;23;20258;-77
2023/03/17 04:10:42;;;;;;;;;;;;;;;3.51;62.76;100436.72;6093793;23;20334;-75
2023/03/17 04:13:50;;;;;;;;;;;;;;;3.63;62.40;100445.66;6078819;23;20392;-73
2023/03/17 04:16:41;;;;;;;;;;;;;;;3.64;62.31;100443.13;6094837;23;19917;-75
2023/03/17 04:19:16;;;;;;;;;;;;;;;3.65;62.28;100449.13;6119479;23;19924;-76
2023/03/17 04:22:18;;;;;;;;;;;;;;;3.65;62.05;100462.00;6098796;23;19924;-76
2023/03/17 04:24:55;;;;;;;;;;;;;;;3.64;62.06;100471.44;6098064;23;19924;-77
2023/03/17 04:27:25;;;;;;;;;;;;;;;3.63;62.06;100479.13;6073713;23;19924;-74
2023/03/17 04:39:18;;;;;;;;;;;;;;;3.75;61.48;100497.50;6093068;23;19924;-77
2023/03/17 04:43:21;;;;;;;;;;;;;;;3.76;61.74;100502.69;6116557;23;19956;-77
2023/03/17 04:46:41;;;;;;;;;;;;;;;3.80;61.31;100506.25;6114862;23;19917;-76
2023/03/17 04:54:29;;;;;;;;;;;;;;;3.89;61.73;100516.78;6122783;23;19927;-76
2023/03/17 05:01:59;;;;;;;;;;;;;;;3.96;61.00;100509.25;6037420;23;20045;-77
2023/03/17 05:13:12;;;;;;;;;;;;;;;4.13;60.91;100546.69;5934879;24;19926;-77
2023/03/17 06:17:52;;;;;;;;;;;;;;;5.16;57.38;100614.81;5909877;24;19919;-76
2023/03/17 06:25:07;;;;;;;;;;;;;;;5.42;56.71;100641.31;5916692;24;20026;-76
2023/03/17 06:32:51;;;;;;;;;;;;;;;5.63;56.01;100637.50;5911420;24;19988;-76
2023/03/17 06:40:57;;;;;;;;;;;;;;;6.03;55.15;100645.38;5993691;23;20277;-75
2023/03/17 06:55:16;;;;;;;;;;;;;;;6.33;55.06;100665.88;5861741;24;20296;-78
2023/03/17 07:02:14;;;;;;;;;;;;;;;6.39;54.54;100662.59;6003263;23;20009;-76
2023/03/17 07:06:27;;;;;;;;;;;;;;;6.55;53.78;100665.50;6030569;23;19957;-77
2023/03/17 07:10:18;;;;;;;;;;;;;;;6.72;53.79;100673.63;6028697;23;19961;-77
2023/03/17 07:18:20;;;;;;;;;;;;;;;7.03;53.03;100669.03;6029262;23;19968;-75
2023/03/17 07:26:19;;;;;;;;;;;;;;;7.74;52.44;100666.84;5919704;24;19926;-77
2023/03/17 07:45:13;;;;;;;;;;;;;;;9.15;50.88;100685.25;6057227;23;19918;-76
2023/03/17 07:53:00;;;;;;;;;;;;;;;10.28;48.58;100687.09;6062886;23;19992;-76
2023/03/17 08:00:20;;;;;;;;;;;;;;;10.72;48.22;100703.84;6087278;23;20040;-78
2023/03/17 08:11:16;;;;;;;;;;;;;;;12.26;46.83;100713.72;6085103;23;19917;-75
2023/03/17 08:14:33;;;;;;;;;;;;;;;12.12;45.42;100665.91;6073516;23;19965;-77
2023/03/17 08:21:50;;;;;;;;;;;;;;;13.97;43.95;100716.44;6057834;23;20372;-75
2023/03/17 08:26:01;;;;;;;;;;;;;;;15.70;43.50;100732.78;6059103;23;19991;-76
2023/03/17 08:34:10;;;;;;;;;;;;;;;18.43;40.86;100743.00;6040334;23;19921;-77
2023/03/17 08:37:48;;;;;;;;;;;;;;;20.27;38.51;100748.09;6011473;23;19927;-75
2023/03/17 08:40:58;;;;;;;;;;;;;;;21.29;37.33;100746.22;6010241;23;19963;-78
2023/03/17 08:56:41;;;;;;;;;;;;;;;23.21;34.56;100750.53;5970740;23;19964;-73
2023/03/17 08:59:13;;;;;;;;;;;;;;;24.16;33.01;100746.00;6007810;23;19961;-71
2023/03/17 09:01:42;;;;;;;;;;;;;;;24.76;30.96;100742.88;6008297;23;19918;-72
2023/03/17 09:07:36;;;;;;;;;;;;;;;24.38;30.58;100756.38;6004854;23;19924;-75
2023/03/17 09:14:23;;;;;;;;;;;;;;;24.20;29.25;100761.72;6015218;23;19988;-73
2023/03/17 09:17:14;;;;;;;;;;;;;;;24.36;29.26;100767.13;6003395;23;19921;-71
2023/03/17 09:19:42;;;;;;;;;;;;;;;26.10;29.22;100760.34;6000007;23;19914;-75
2023/03/17 09:22:26;;;;;;;;;;;;;;;27.87;26.38;100760.09;5999710;23;19922;-74
2023/03/17 09:25:00;;;;;;;;;;;;;;;29.23;26.72;100751.72;6021727;23;19922;-74
2023/03/17 09:27:44;;;;;;;;;;;;;;;30.51;24.78;100744.78;5996143;23;19918;-73
2023/03/17 09:30:34;;;;;;;;;;;;;;;29.47;24.65;100757.13;6028035;23;19918;-74
2023/03/17 09:33:27;;;;;;;;;;;;;;;28.29;24.76;100757.31;6005081;23;20067;-72
2023/03/17 09:37:14;;;;;;;;;;;;;;;27.29;25.08;100754.91;5990185;23;19917;-73
2023/03/17 09:39:43;;;;;;;;;;;;;;;26.64;25.38;100752.75;6027331;23;20315;-75
2023/03/17 09:42:15;;;;;;;;;;;;;;;27.71;25.78;100754.91;6029258;23;19949;-73
2023/03/17 09:45:04;;;;;;;;;;;;;;;29.51;23.82;100757.72;5999629;23;19925;-73
2023/03/17 09:47:52;;;;;;;;;;;;;;;29.88;21.89;100746.97;6025119;23;19917;-73
2023/03/17 09:50:47;;;;;;;;;;;;;;;30.56;21.83;100755.22;6024086;23;20645;-74
2023/03/17 09:53:32;;;;;;;;;;;;;;;29.87;22.23;100756.81;5982512;23;19918;-72
2023/03/17 09:56:22;;;;;;;;;;;;;;;29.25;22.72;100761.34;6072905;23;19917;-73
2023/03/17 09:59:28;;;;;;;;;;;;;;;29.31;22.65;100770.75;6080998;23;19996;-73
2023/03/17 10:02:20;;;;;;;;;;;;;;;30.87;22.12;100765.38;6090714;23;20749;-73
2023/03/17 10:04:47;;;;;;;;;;;;;;;32.31;21.32;100769.75;6089810;23;20265;-73
2023/03/17 10:07:37;;;;;;;;;;;;;;;33.27;20.98;100774.03;6090342;23;19917;-73
2023/03/17 10:10:53;;;;;;;;;;;;;;;32.68;20.53;100777.34;6068770;23;19917;-75
2023/03/17 10:13:49;;;;;;;;;;;;;;;32.10;20.70;100740.13;6066267;23;19921;-72
2023/03/17 10:16:34;;;;;;;;;;;;;;;33.34;20.68;100781.41;6092018;23;19967;-72
2023/03/17 10:19:12;;;;;;;;;;;;;;;32.94;19.88;100787.69;6065163;23;19917;-74
2023/03/17 10:22:22;;;;;;;;;;;;;;;30.95;20.33;100784.38;6067633;23;19944;-75
2023/03/17 10:24:56;;;;;;;;;;;;;;;27.36;21.07;100792.78;6073351;23;19917;-73
2023/03/17 10:27:56;;;;;;;;;;;;;;;24.62;23.00;100788.81;6121057;23;20007;-74
2023/03/17 10:34:33;;;;;;;;;;;;;;;20.01;25.35;100800.00;6117333;23;19916;-71
2023/03/17 10:37:43;;;;;;;;;;;;;;;18.67;25.78;100805.59;6118429;23;19969;-75
2023/03/17 10:40:47;;;;;;;;;;;;;;;17.57;26.34;100805.59;6117659;23;20006;-78
2023/03/17 11:00:40;;;;;;;;;;;;;;;12.45;27.98;100839.84;5944998;23;19918;-76
2023/03/17 11:23:02;;;;;;;;;;;;;;;9.79;28.17;100863.50;6077805;23;19917;-75
2023/03/17 11:26:29;;;;;;;;;;;;;;;9.49;28.19;100871.81;6092343;23;19917;-75
2023/03/17 11:29:12;;;;;;;;;;;;;;;9.37;28.30;100877.72;6109567;23;20257;-73
2023/03/17 11:32:40;;;;;;;;;;;;;;;9.32;27.91;100879.38;6091628;23;19924;-74
2023/03/17 11:35:37;;;;;;;;;;;;;;;9.14;27.74;100880.00;6000445;23;20295;-73
2023/03/17 11:38:10;;;;;;;;;;;;;;;9.09;28.14;100877.31;6056384;23;20301;-73
2023/03/17 11:40:54;;;;;;;;;;;;;;;8.96;28.26;100878.84;6034606;23;20000;-73
2023/03/17 11:43:25;;;;;;;;;;;;;;;8.81;28.17;100878.63;6033852;23;19971;-74
2023/03/17 11:46:28;;;;;;;;;;;;;;;8.66;28.50;100890.53;6057107;23;19918;-74
2023/03/17 11:49:13;;;;;;;;;;;;;;;8.52;28.50;100889.41;6100032;23;19921;-73
2023/03/17 11:51:59;;;;;;;;;;;;;;;8.41;28.91;100889.19;6148736;23;20360;-74
2023/03/17 11:54:54;;;;;;;;;;;;;;;8.31;29.01;100895.94;6143268;23;20352;-73
2023/03/17 11:57:41;;;;;;;;;;;;;;;8.12;29.30;100895.59;6149045;23;19979;-73
2023/03/17 12:00:15;;;;;;;;;;;;;;;7.98;29.25;100887.56;6096872;23;19916;-72
2023/03/17 12:03:20;;;;;;;;;;;;;;;7.94;29.25;100895.25;6146903;23;19923;-73
2023/03/17 12:05:51;;;;;;;;;;;;;;;7.93;29.25;100898.69;6122641;23;19924;-73
2023/03/17 12:08:24;;;;;;;;;;;;;;;7.82;29.25;100894.19;6144893;23;19924;-71
2023/03/17 12:10:58;;;;;;;;;;;;;;;7.71;29.07;100903.44;6146051;23;19916;-73
2023/03/17 12:13:39;;;;;;;;;;;;;;;7.68;29.55;100899.09;6149149;23;19923;-74
2023/03/17 12:16:30;;;;;;;;;;;;;;;7.66;29.00;100905.06;6146107;23;20257;-74
2023/03/17 12:19:24;;;;;;;;;;;;;;;7.52;28.98;100907.34;6142916;23;19920;-74
2023/03/17 12:22:39;;;;;;;;;;;;;;;7.48;29.29;100909.00;6145811;23;19916;-74
2023/03/17 12:25:15;;;;;;;;;;;;;;;7.53;29.25;100910.00;6106697;23;19917;-75
2023/03/17 12:27:53;;;;;;;;;;;;;;;7.51;28.86;100911.69;6144566;23;20011;-71
2023/03/17 12:30:51;;;;;;;;;;;;;;;7.43;28.77;100913.22;6146001;23;19922;-74
2023/03/17 12:33:20;;;;;;;;;;;;;;;7.22;29.44;100909.31;6119970;23;20002;-72
2023/03/17 12:35:51;;;;;;;;;;;;;;;7.15;29.50;100912.63;6145014;23;19938;-77
2023/03/17 12:39:39;;;;;;;;;;;;;;;7.20;29.26;100910.13;6114645;23;20139;-74
2023/03/17 12:42:53;;;;;;;;;;;;;;;7.16;29.33;100919.56;6114368;23;19960;-74
2023/03/17 12:45:28;;;;;;;;;;;;;;;7.17;29.91;100921.25;6113296;23;19921;-73
2023/03/17 12:48:21;;;;;;;;;;;;;;;7.12;29.69;100917.72;6106384;23;19921;-72
2023/03/17 12:51:50;;;;;;;;;;;;;;;7.05;30.26;100921.00;6085955;23;19924;-75
2023/03/17 12:54:32;;;;;;;;;;;;;;;7.03;29.79;100927.84;6025895;23;20406;-73
2023/03/17 12:57:05;;;;;;;;;;;;;;;6.99;30.02;100923.44;6029724;23;20378;-74
2023/03/17 12:59:41;;;;;;;;;;;;;;;6.96;29.87;100925.94;6040604;23;20008;-73
2023/03/17 13:02:28;;;;;;;;;;;;;;;6.91;30.24;100920.66;6074288;23;19917;-75
2023/03/17 13:05:29;;;;;;;;;;;;;;;6.85;29.76;100925.69;6086171;23;20090;-76
2023/03/17 13:08:35;;;;;;;;;;;;;;;6.78;30.31;100938.50;6061549;23;19917;-74
2023/03/17 13:11:17;;;;;;;;;;;;;;;6.70;30.03;100941.72;6119617;23;19971;-73
2023/03/17 13:14:16;;;;;;;;;;;;;;;6.62;29.79;100946.72;6092642;23;20260;-77
2023/03/17 13:22:11;;;;;;;;;;;;;;;6.54;29.60;100950.78;5997110;23;20488;-75
2023/03/17 13:34:24;;;;;;;;;;;;;;;6.37;30.35;100958.09;6115383;23;20352;-81
2023/03/17 13:37:08;;;;;;;;;;;;;;;6.30;29.76;100955.34;6126022;23;19924;-81
2023/03/17 13:40:00;;;;;;;;;;;;;;;6.21;30.39;100944.78;6124253;23;19920;-79
2023/03/17 13:42:39;;;;;;;;;;;;;;;6.21;30.30;100955.09;6116822;23;19981;-80
2023/03/17 13:45:26;;;;;;;;;;;;;;;6.18;30.16;100958.47;6070057;23;20694;-80
2023/03/17 15:35:41;;;;;;;;;;;;;;;3.70;31.92;101101.47;6058055;23;20001;-81
2023/03/17 15:38:10;;;;;;;;;;;;;;;3.65;32.40;101097.81;6061330;23;19921;-82
2023/03/17 15:40:37;;;;;;;;;;;;;;;3.57;32.33;101101.00;6061615;23;20341;-84
2023/03/17 15:43:02;;;;;;;;;;;;;;;3.54;32.63;101105.13;6064442;23;19922;-82
2023/03/17 15:45:28;;;;;;;;;;;;;;;3.47;32.59;101102.31;6063601;23;19960;-85
2023/03/17 15:47:55;;;;;;;;;;;;;;;3.43;32.68;101100.44;6040320;23;19917;-80
2023/03/17 15:50:31;;;;;;;;;;;;;;;3.40;32.70;101110.59;6061677;23;19949;-81
2023/03/17 15:52:57;;;;;;;;;;;;;;;3.34;32.91;101112.91;6064250;23;19992;-79
2023/03/17 15:55:29;;;;;;;;;;;;;;;3.29;32.90;101115.28;6065422;23;19917;-81
2023/03/17 15:57:56;;;;;;;;;;;;;;;3.24;32.94;101116.78;6064341;23;20262;-81
2023/03/17 16:00:56;;;;;;;;;;;;;;;3.20;33.07;101122.59;6039286;23;19917;-81
2023/03/17 16:03:31;;;;;;;;;;;;;;;3.09;32.92;101134.16;6065902;23;19968;-81
2023/03/17 16:05:57;;;;;;;;;;;;;;;3.06;33.50;101131.44;6064582;23;19918;-78
2023/03/17 16:08:40;;;;;;;;;;;;;;;3.00;33.25;101143.22;6064906;23;20050;-80
2023/03/17 16:11:29;;;;;;;;;;;;;;;2.97;33.29;101145.69;6063247;23;19996;-81
2023/03/17 16:13:56;;;;;;;;;;;;;;;2.94;33.56;101152.34;6040150;23;19918;-81
2023/03/17 16:16:28;;;;;;;;;;;;;;;2.88;33.48;101159.78;6065588;23;19917;-81
2023/03/17 16:19:04;;;;;;;;;;;;;;;2.81;33.55;101161.22;6063300;23;19918;-81
2023/03/17 16:21:30;;;;;;;;;;;;;;;2.79;33.76;101170.56;6028747;23;19932;-81
2023/03/17 16:23:57;;;;;;;;;;;;;;;2.72;33.94;101171.97;6060461;23;19937;-83
2023/03/17 16:26:26;;;;;;;;;;;;;;;2.66;34.01;101181.97;6060846;23;20000;-83
2023/03/17 16:28:58;;;;;;;;;;;;;;;2.61;33.86;101189.47;6034421;23;19921;-81
2023/03/17 16:31:27;;;;;;;;;;;;;;;2.59;33.94;101196.25;6033594;23;19953;-82
2023/03/17 16:33:54;;;;;;;;;;;;;;;2.56;33.95;101190.94;6067767;23;19917;-81
2023/03/17 16:36:26;;;;;;;;;;;;;;;2.52;34.32;101204.50;6088993;23;19917;-80
2023/03/17 16:38:58;;;;;;;;;;;;;;;2.44;34.12;101208.38;6091331;23;19936;-80
2023/03/17 16:41:26;;;;;;;;;;;;;;;2.45;34.21;101217.84;6091180;23;19932;-80
2023/03/17 16:43:56;;;;;;;;;;;;;;;2.43;34.25;101219.47;6093699;23;19932;-79
2023/03/17 16:46:32;;;;;;;;;;;;;;;2.38;34.12;101220.13;6043132;23;20593;-82
2023/03/17 16:48:58;;;;;;;;;;;;;;;2.38;34.59;101222.69;6040956;23;20346;-81
2023/03/17 16:51:24;;;;;;;;;;;;;;;2.30;34.51;101230.84;6063401;23;20341;-80
2023/03/17 16:53:54;;;;;;;;;;;;;;;2.24;34.47;101228.88;6088208;23;19924;-82
2023/03/17 16:56:21;;;;;;;;;;;;;;;2.19;34.73;101236.38;6040584;23;19917;-84
2023/03/17 16:58:58;;;;;;;;;;;;;;;2.08;35.11;101240.09;6088306;23;20284;-81
2023/03/17 17:01:44;;;;;;;;;;;;;;;2.03;35.02;101236.41;6038892;23;19921;-84
2023/03/17 17:04:40;;;;;;;;;;;;;;;1.98;34.97;101237.91;6089123;23;19917;-84
2023/03/17 17:07:46;;;;;;;;;;;;;;;2.00;35.13;101242.28;6062479;23;19917;-82
2023/03/17 17:10:43;;;;;;;;;;;;;;;1.95;35.24;101244.66;6063964;23;19925;-82
2023/03/17 18:46:09;;;;;;;;;;;;;;;0.84;36.65;101369.69;6164014;23;19931;-84
2023/03/17 18:48:44;;;;;;;;;;;;;;;0.84;37.53;101370.53;6131185;23;19923;-84
2023/03/17 18:51:15;;;;;;;;;;;;;;;0.85;36.82;101391.94;6127920;23;19943;-86
2023/03/17 18:53:41;;;;;;;;;;;;;;;0.84;37.46;101385.06;6128652;23;19924;-85
2023/03/17 18:56:07;;;;;;;;;;;;;;;0.79;37.23;101387.34;6126891;23;19971;-82
2023/03/17 18:58:33;;;;;;;;;;;;;;;0.81;37.53;101388.31;6125562;23;19916;-81
2023/03/17 19:01:08;;;;;;;;;;;;;;;0.78;37.80;101389.81;6152791;23;19936;-85
2023/03/17 19:03:45;;;;;;;;;;;;;;;0.70;37.58;101389.41;6106012;23;20379;-82
2023/03/17 19:06:16;;;;;;;;;;;;;;;0.74;37.37;101392.22;6131336;23;19987;-83
2023/03/17 19:08:45;;;;;;;;;;;;;;;0.70;37.63;101392.81;6125568;23;19921;-84
2023/03/17 19:11:15;;;;;;;;;;;;;;;0.72;37.69;101398.06;6103389;23;19916;-85
2023/03/17 19:13:41;;;;;;;;;;;;;;;0.71;37.16;101407.41;6152277;23;19916;-85
2023/03/17 19:16:10;;;;;;;;;;;;;;;0.70;37.47;101400.50;6110815;23;19916;-84
2023/03/17 19:18:43;;;;;;;;;;;;;;;0.58;37.51;101408.38;6109754;23;19951;-87
2023/03/17 19:21:10;;;;;;;;;;;;;;;0.52;37.99;101408.06;6112326;23;19967;-85
2023/03/17 19:23:50;;;;;;;;;;;;;;;0.43;36.98;101410.06;6108906;23;20395;-86
2023/03/17 19:26:36;;;;;;;;;;;;;;;0.37;37.47;101409.69;6112579;23;19921;-89
2023/03/17 19:29:13;;;;;;;;;;;;;;;0.35;37.76;101416.41;6136251;23;19936;-85
2023/03/17 19:31:48;;;;;;;;;;;;;;;0.36;37.62;101413.06;6110046;23;19927;-86
2023/03/17 19:34:15;;;;;;;;;;;;;;;0.32;38.23;101418.81;6129113;23;19921;-84
2023/03/17 19:36:50;;;;;;;;;;;;;;;0.33;37.53;101416.34;6106030;23;19924;-87
2023/03/17 19:39:36;;;;;;;;;;;;;;;0.28;37.70;101417.72;6108252;23;19928;-85
2023/03/17 19:43:01;;;;;;;;;;;;;;;0.22;37.71;101420.81;6108202;23;19917;-88
2023/03/17 19:47:03;;;;;;;;;;;;;;;0.19;37.95;101423.19;6134323;23;19917;-87
2023/03/17 19:49:36;;;;;;;;;;;;;;;-0.15;37.92;101349.53;6131151;23;19917;-85
2023/03/17 19:52:06;;;;;;;;;;;;;;;0.20;37.67;101419.84;6105206;23;19916;-84
2023/03/17 19:55:02;;;;;;;;;;;;;;;;;;;;;
2023/03/17 19:58:03;;;;;;;;;;;;;;;0.06;38.43;101423.28;6107381;23;19923;-84
2023/03/17 20:00:34;;;;;;;;;;;;;;;0.03;38.14;101428.22;6092789;23;19947;-86
2023/03/17 20:03:41;;;;;;;;;;;;;;;-0.02;37.84;101439.03;6145146;23;19928;-84
2023/03/17 20:06:43;;;;;;;;;;;;;;;-0.02;38.60;101439.03;6125014;23;20129;-84
2023/03/17 20:09:32;;;;;;;;;;;;;;;-0.02;37.66;101440.75;6144105;23;19916;-88
2023/03/17 20:12:14;;;;;;;;;;;;;;;-0.09;38.29;101451.38;6112031;23;19920;-84
2023/03/17 20:14:43;;;;;;;;;;;;;;;-0.16;38.72;101445.88;6080538;23;19919;-88
2023/03/17 20:17:18;;;;;;;;;;;;;;;-0.17;38.32;101456.91;6129011;23;19916;-85
2023/03/17 20:19:45;;;;;;;;;;;;;;;-0.22;38.56;101448.06;6080909;23;19998;-86
2023/03/17 20:22:19;;;;;;;;;;;;;;;-0.22;38.79;101450.63;6128712;23;19916;-86
2023/03/17 20:24:48;;;;;;;;;;;;;;;-0.25;38.49;101460.69;6104616;23;20475;-84
2023/03/17 20:27:15;;;;;;;;;;;;;;;-0.22;38.82;101454.88;6128029;23;19968;-85
2023/03/17 20:29:42;;;;;;;;;;;;;;;-0.24;38.27;101453.88;6079533;23;20008;-87
2023/03/17 20:32:10;;;;;;;;;;;;;;;-0.24;38.10;101454.78;6079687;23;20353;-86
2023/03/17 20:34:51;;;;;;;;;;;;;;;-0.25;38.20;101447.00;6086454;23;19913;-86
2023/03/17 20:37:31;;;;;;;;;;;;;;;-0.25;38.84;101450.47;6113927;23;19975;-87
2023/03/17 20:39:59;;;;;;;;;;;;;;;-0.32;38.30;101454.28;6057321;23;19927;-86
2023/03/17 20:42:43;;;;;;;;;;;;;;;-0.42;38.44;101451.97;6080972;23;19917;-85
2023/03/17 20:45:12;;;;;;;;;;;;;;;-0.43;38.94;101449.28;6057196;23;19940;-87
2023/03/17 20:47:46;;;;;;;;;;;;;;;-0.48;38.61;101460.16;6107281;23;20359;-85
2023/03/17 20:54:39;;;;;;;;;;;;;;;-0.49;38.08;101465.16;5993482;23;20023;-84
2023/03/17 20:57:21;;;;;;;;;;;;;;;-0.54;38.44;101467.44;6151632;23;19968;-85
2023/03/17 20:59:52;;;;;;;;;;;;;;;-0.55;38.63;101477.56;6128443;23;19921;-85
2023/03/17 21:02:20;;;;;;;;;;;;;;;-0.57;38.50;101471.47;6102290;23;19917;-86
2023/03/17 21:05:07;;;;;;;;;;;;;;;-0.57;38.55;101477.47;6154096;23;20257;-83
2023/03/17 21:07:34;;;;;;;;;;;;;;;-0.60;38.97;101474.69;6105014;23;19921;-84
2023/03/17 21:10:10;;;;;;;;;;;;;;;-0.57;38.95;101481.72;6127609;23;19917;-85
2023/03/17 21:12:36;;;;;;;;;;;;;;;-0.58;39.01;101480.81;6053216;23;20081;-83
2023/03/17 21:15:02;;;;;;;;;;;;;;;-0.57;39.05;101486.81;6124929;23;19924;-83
2023/03/17 21:17:28;;;;;;;;;;;;;;;-0.57;38.97;101486.81;6054862;23;19917;-82
2023/03/17 21:19:55;;;;;;;;;;;;;;;-0.59;38.75;101484.16;6079829;23;19917;-83
2023/03/17 21:22:21;;;;;;;;;;;;;;;-0.57;38.51;101491.94;6127018;23;19971;-85
2023/03/17 21:24:47;;;;;;;;;;;;;;;-0.55;38.89;101492.91;6127402;23;19916;-84
2023/03/17 21:27:14;;;;;;;;;;;;;;;-0.54;39.05;101493.00;6105465;23;19992;-85
2023/03/17 21:29:47;;;;;;;;;;;;;;;-0.55;38.55;101498.03;6107251;23;20247;-83
2023/03/17 21:32:12;;;;;;;;;;;;;;;-0.56;38.75;101498.81;6129931;23;20357;-81
2023/03/17 21:34:38;;;;;;;;;;;;;;;-0.58;39.13;101500.41;6131178;23;20360;-83
2023/03/17 21:37:04;;;;;;;;;;;;;;;-0.64;39.38;101499.22;6105092;23;19948;-82
2023/03/17 21:39:31;;;;;;;;;;;;;;;-0.58;38.86;101501.25;6082380;23;19943;-85
2023/03/17 21:42:00;;;;;;;;;;;;;;;-0.62;39.34;101501.84;6082896;23;19923;-82
2023/03/17 21:44:25;;;;;;;;;;;;;;;-0.66;38.56;101510.13;6083582;23;19917;-84
2023/03/17 21:46:55;;;;;;;;;;;;;;;-0.72;38.92;101515.72;6083145;23;19951;-83
2023/03/17 21:49:23;;;;;;;;;;;;;;;-0.72;39.03;101514.84;6082275;23;19921;-82
2023/03/17 21:51:50;;;;;;;;;;;;;;;-0.71;39.56;101514.06;6105813;23;19971;-82
2023/03/17 21:54:17;;;;;;;;;;;;;;;-0.74;39.63;101519.84;6105976;23;19920;-84
2023/03/17 21:56:46;;;;;;;;;;;;;;;-0.75;39.35;101523.19;6107350;23;19987;-86
2023/03/17 21:59:14;;;;;;;;;;;;;;;-0.73;39.20;101524.19;6085928;23;20341;-87
2023/03/17 22:01:44;;;;;;;;;;;;;;;-0.71;38.87;101526.84;6063586;23;19955;-85
2023/03/17 22:04:37;;;;;;;;;;;;;;;-0.77;39.59;101530.78;6082819;23;19921;-86
2023/03/17 22:07:04;;;;;;;;;;;;;;;-0.76;39.20;101531.63;6077121;23;19928;-85
2023/03/17 22:09:31;;;;;;;;;;;;;;;-0.84;39.27;101538.81;6057016;23;19924;-86
2023/03/17 22:11:57;;;;;;;;;;;;;;;-0.89;39.64;101536.75;6079945;23;19944;-85
2023/03/17 22:14:23;;;;;;;;;;;;;;;-0.99;39.48;101538.69;6051743;23;20308;-84
2023/03/17 22:16:58;;;;;;;;;;;;;;;-0.95;40.05;101544.91;6102550;23;19917;-86
2023/03/17 22:19:27;;;;;;;;;;;;;;;-0.95;39.67;101547.47;6033367;23;19923;-85
2023/03/17 22:21:55;;;;;;;;;;;;;;;-0.96;40.17;101549.13;6056903;23;19942;-85
2023/03/17 22:24:27;;;;;;;;;;;;;;;-0.98;39.69;101547.25;6061371;23;19928;-85
2023/03/17 22:26:54;;;;;;;;;;;;;;;-0.99;39.25;101554.03;6060445;23;19921;-84
2023/03/17 22:29:21;;;;;;;;;;;;;;;-1.00;39.87;101548.81;6039003;23;19917;-87
2023/03/17 22:31:47;;;;;;;;;;;;;;;-1.03;39.48;101552.09;6081933;23;19925;-85
2023/03/17 22:34:16;;;;;;;;;;;;;;;-1.01;40.20;101560.75;6077991;23;19918;-85
2023/03/17 22:36:50;;;;;;;;;;;;;;;-1.06;39.80;101564.66;6051494;23;19917;-84
2023/03/17 22:39:42;;;;;;;;;;;;;;;-1.08;40.25;101556.88;6047200;23;19960;-88
2023/03/17 22:42:17;;;;;;;;;;;;;;;-1.03;40.19;101562.31;6045705;23;19917;-84
2023/03/17 22:45:22;;;;;;;;;;;;;;;-1.06;39.91;101569.75;6045986;23;20356;-85
2023/03/17 22:47:50;;;;;;;;;;;;;;;-1.10;39.81;101566.09;6047935;23;19965;-88